Cascade, Colorado
Current Conditions -  °F | °C
As of 1:58 PM on Saturday 20 Dec 2014 (Local Time) from KAFF Reporting Station
Clear Clear  
Wind Chill: 51°   Ceiling: Unl
Heat Index: 51°   Visibility: 10mi
Dew Point: 14°   Wind: 5mph
Humidity: 23%   Direction: 280°W
Pressure: 29.92"   Gusts: NA
Location:  38.9°N, 104.97°W
Report Text: KAFF 202058Z AUTO 28004KT 10SM CLR 11/M10 A2992 RMK AO2 SLP138 T01051101 57022
Loading
Personal Weather Stations






























Interactive Weather Map New forecast layout! Learn more

10-Day Weather Forecast

Advertisements
Track Severe Weather on mobile